sensor_id;sensor_type;location;lat;lon;timestamp;P1;durP1;ratioP1;P2;durP2;ratioP2
74872;SDS011;68776;44.762;37.698;2023-04-03T00:00:00;8.50;;;2.25;;
74872;SDS011;68776;44.762;37.698;2023-04-03T00:01:06;8.07;;;2.60;;
74872;SDS011;68776;44.762;37.698;2023-04-03T00:02:08;11.10;;;2.95;;
74872;SDS011;68776;44.762;37.698;2023-04-03T00:03:09;8.53;;;2.37;;
74872;SDS011;68776;44.762;37.698;2023-04-03T00:04:10;8.50;;;2.55;;
74872;SDS011;68776;44.762;37.698;2023-04-03T00:05:11;7.63;;;2.40;;
74872;SDS011;68776;44.762;37.698;2023-04-03T00:06:12;8.98;;;2.70;;
74872;SDS011;68776;44.762;37.698;2023-04-03T00:07:13;10.05;;;2.70;;
74872;SDS011;68776;44.762;37.698;2023-04-03T00:08:15;8.48;;;2.50;;
74872;SDS011;68776;44.762;37.698;2023-04-03T00:09:16;9.55;;;2.55;;
74872;SDS011;68776;44.762;37.698;2023-04-03T00:10:17;9.43;;;2.80;;
74872;SDS011;68776;44.762;37.698;2023-04-03T00:11:18;9.60;;;3.08;;
74872;SDS011;68776;44.762;37.698;2023-04-03T00:12:21;9.57;;;2.77;;
74872;SDS011;68776;44.762;37.698;2023-04-03T00:13:22;9.85;;;3.00;;
74872;SDS011;68776;44.762;37.698;2023-04-03T00:14:23;7.53;;;2.72;;
74872;SDS011;68776;44.762;37.698;2023-04-03T00:15:24;7.63;;;2.50;;
74872;SDS011;68776;44.762;37.698;2023-04-03T00:16:25;7.75;;;2.47;;
74872;SDS011;68776;44.762;37.698;2023-04-03T00:17:26;8.07;;;2.50;;
74872;SDS011;68776;44.762;37.698;2023-04-03T00:18:27;8.77;;;2.60;;
74872;SDS011;68776;44.762;37.698;2023-04-03T00:19:28;10.15;;;2.70;;
74872;SDS011;68776;44.762;37.698;2023-04-03T00:20:29;7.65;;;2.58;;
74872;SDS011;68776;44.762;37.698;2023-04-03T00:21:30;9.47;;;2.50;;
74872;SDS011;68776;44.762;37.698;2023-04-03T00:22:31;8.45;;;2.63;;
74872;SDS011;68776;44.762;37.698;2023-04-03T00:23:33;8.65;;;2.55;;
74872;SDS011;68776;44.762;37.698;2023-04-03T00:24:34;9.00;;;2.40;;
74872;SDS011;68776;44.762;37.698;2023-04-03T00:25:35;7.35;;;2.30;;
74872;SDS011;68776;44.762;37.698;2023-04-03T00:26:36;8.45;;;2.58;;
74872;SDS011;68776;44.762;37.698;2023-04-03T00:27:37;7.70;;;2.50;;
74872;SDS011;68776;44.762;37.698;2023-04-03T00:28:40;8.30;;;2.60;;
74872;SDS011;68776;44.762;37.698;2023-04-03T00:29:41;7.82;;;2.35;;
74872;SDS011;68776;44.762;37.698;2023-04-03T00:30:42;8.55;;;2.20;;
74872;SDS011;68776;44.762;37.698;2023-04-03T00:31:43;8.00;;;2.50;;
74872;SDS011;68776;44.762;37.698;2023-04-03T00:32:44;8.13;;;2.00;;
74872;SDS011;68776;44.762;37.698;2023-04-03T00:33:45;9.90;;;2.60;;
74872;SDS011;68776;44.762;37.698;2023-04-03T00:34:46;7.45;;;2.38;;
74872;SDS011;68776;44.762;37.698;2023-04-03T00:35:47;9.23;;;2.70;;
74872;SDS011;68776;44.762;37.698;2023-04-03T00:36:49;8.75;;;2.55;;
74872;SDS011;68776;44.762;37.698;2023-04-03T00:37:50;8.05;;;2.45;;
74872;SDS011;68776;44.762;37.698;2023-04-03T00:38:52;8.48;;;2.40;;
74872;SDS011;68776;44.762;37.698;2023-04-03T00:39:53;8.63;;;2.60;;
74872;SDS011;68776;44.762;37.698;2023-04-03T00:40:54;7.70;;;2.65;;
74872;SDS011;68776;44.762;37.698;2023-04-03T00:41:55;8.80;;;2.70;;
74872;SDS011;68776;44.762;37.698;2023-04-03T00:42:57;8.80;;;2.67;;
74872;SDS011;68776;44.762;37.698;2023-04-03T00:43:59;10.47;;;2.80;;
74872;SDS011;68776;44.762;37.698;2023-04-03T00:46:02;8.25;;;2.60;;
74872;SDS011;68776;44.762;37.698;2023-04-03T00:47:03;8.57;;;2.58;;
74872;SDS011;68776;44.762;37.698;2023-04-03T00:48:08;8.48;;;2.70;;
74872;SDS011;68776;44.762;37.698;2023-04-03T00:49:13;7.53;;;2.45;;
74872;SDS011;68776;44.762;37.698;2023-04-03T00:50:14;9.88;;;2.70;;
74872;SDS011;68776;44.762;37.698;2023-04-03T00:51:25;9.32;;;3.00;;
74872;SDS011;68776;44.762;37.698;2023-04-03T00:52:28;8.90;;;2.70;;
74872;SDS011;68776;44.762;37.698;2023-04-03T00:53:31;10.88;;;3.00;;
74872;SDS011;68776;44.762;37.698;2023-04-03T00:54:37;11.20;;;2.88;;
74872;SDS011;68776;44.762;37.698;2023-04-03T00:55:39;8.45;;;2.75;;
74872;SDS011;68776;44.762;37.698;2023-04-03T00:56:41;8.68;;;2.42;;
74872;SDS011;68776;44.762;37.698;2023-04-03T00:57:43;8.57;;;2.60;;
74872;SDS011;68776;44.762;37.698;2023-04-03T00:59:09;8.82;;;2.60;;
74872;SDS011;68776;44.762;37.698;2023-04-03T01:00:16;12.07;;;2.60;;
74872;SDS011;68776;44.762;37.698;2023-04-03T01:01:24;8.73;;;2.85;;
74872;SDS011;68776;44.762;37.698;2023-04-03T01:02:27;9.05;;;2.78;;
74872;SDS011;68776;44.762;37.698;2023-04-03T01:03:28;9.68;;;2.70;;
74872;SDS011;68776;44.762;37.698;2023-04-03T01:05:39;8.52;;;2.78;;
74872;SDS011;68776;44.762;37.698;2023-04-03T01:06:40;8.55;;;2.50;;
74872;SDS011;68776;44.762;37.698;2023-04-03T01:07:42;9.10;;;2.70;;
74872;SDS011;68776;44.762;37.698;2023-04-03T01:08:43;8.23;;;2.70;;
74872;SDS011;68776;44.762;37.698;2023-04-03T01:09:47;9.10;;;2.42;;
74872;SDS011;68776;44.762;37.698;2023-04-03T01:10:51;7.77;;;2.57;;
74872;SDS011;68776;44.762;37.698;2023-04-03T01:12:11;7.88;;;2.40;;
74872;SDS011;68776;44.762;37.698;2023-04-03T01:13:21;9.40;;;2.83;;
74872;SDS011;68776;44.762;37.698;2023-04-03T01:14:28;9.15;;;2.70;;
74872;SDS011;68776;44.762;37.698;2023-04-03T01:15:29;8.85;;;3.08;;
74872;SDS011;68776;44.762;37.698;2023-04-03T01:16:35;9.10;;;2.72;;
74872;SDS011;68776;44.762;37.698;2023-04-03T01:17:37;9.90;;;3.00;;
74872;SDS011;68776;44.762;37.698;2023-04-03T01:18:39;8.73;;;2.72;;
74872;SDS011;68776;44.762;37.698;2023-04-03T01:19:40;8.60;;;2.90;;
74872;SDS011;68776;44.762;37.698;2023-04-03T01:25:18;10.35;;;3.17;;
74872;SDS011;68776;44.762;37.698;2023-04-03T01:26:19;9.18;;;2.75;;
74872;SDS011;68776;44.762;37.698;2023-04-03T01:27:20;10.43;;;2.97;;
74872;SDS011;68776;44.762;37.698;2023-04-03T01:28:23;9.32;;;3.17;;
74872;SDS011;68776;44.762;37.698;2023-04-03T01:29:24;9.90;;;3.08;;
74872;SDS011;68776;44.762;37.698;2023-04-03T01:30:26;8.30;;;3.03;;
74872;SDS011;68776;44.762;37.698;2023-04-03T01:32:06;10.52;;;3.13;;
74872;SDS011;68776;44.762;37.698;2023-04-03T01:33:01;7.78;;;2.92;;
74872;SDS011;68776;44.762;37.698;2023-04-03T01:34:02;9.13;;;3.10;;
74872;SDS011;68776;44.762;37.698;2023-04-03T01:35:06;9.70;;;3.13;;
74872;SDS011;68776;44.762;37.698;2023-04-03T01:36:09;11.13;;;3.20;;
74872;SDS011;68776;44.762;37.698;2023-04-03T01:37:10;10.82;;;3.20;;
74872;SDS011;68776;44.762;37.698;2023-04-03T01:38:11;8.50;;;3.00;;
74872;SDS011;68776;44.762;37.698;2023-04-03T01:39:12;9.20;;;3.10;;
74872;SDS011;68776;44.762;37.698;2023-04-03T01:40:14;11.27;;;3.38;;
74872;SDS011;68776;44.762;37.698;2023-04-03T01:41:15;10.43;;;3.10;;
74872;SDS011;68776;44.762;37.698;2023-04-03T01:42:17;8.73;;;3.00;;
74872;SDS011;68776;44.762;37.698;2023-04-03T01:43:18;12.57;;;3.60;;
74872;SDS011;68776;44.762;37.698;2023-04-03T01:44:20;9.73;;;3.20;;
74872;SDS011;68776;44.762;37.698;2023-04-03T01:45:21;17.95;;;4.20;;
74872;SDS011;68776;44.762;37.698;2023-04-03T01:46:22;10.90;;;3.00;;
74872;SDS011;68776;44.762;37.698;2023-04-03T01:47:23;10.88;;;3.13;;
74872;SDS011;68776;44.762;37.698;2023-04-03T01:48:24;10.25;;;3.25;;
74872;SDS011;68776;44.762;37.698;2023-04-03T01:49:25;8.50;;;3.30;;
74872;SDS011;68776;44.762;37.698;2023-04-03T01:50:26;12.63;;;3.53;;
74872;SDS011;68776;44.762;37.698;2023-04-03T01:51:27;9.32;;;3.60;;
74872;SDS011;68776;44.762;37.698;2023-04-03T01:52:28;10.93;;;3.50;;
74872;SDS011;68776;44.762;37.698;2023-04-03T01:53:30;10.40;;;3.33;;
74872;SDS011;68776;44.762;37.698;2023-04-03T01:54:31;11.68;;;3.85;;
74872;SDS011;68776;44.762;37.698;2023-04-03T01:55:33;11.45;;;3.55;;
74872;SDS011;68776;44.762;37.698;2023-04-03T01:56:34;10.48;;;3.70;;
74872;SDS011;68776;44.762;37.698;2023-04-03T01:57:35;11.48;;;3.60;;
74872;SDS011;68776;44.762;37.698;2023-04-03T01:58:36;10.00;;;3.42;;
74872;SDS011;68776;44.762;37.698;2023-04-03T01:59:37;11.70;;;3.70;;
74872;SDS011;68776;44.762;37.698;2023-04-03T02:00:38;11.60;;;3.53;;
74872;SDS011;68776;44.762;37.698;2023-04-03T02:01:39;11.13;;;3.63;;
74872;SDS011;68776;44.762;37.698;2023-04-03T02:02:40;12.18;;;3.97;;
74872;SDS011;68776;44.762;37.698;2023-04-03T02:03:41;10.48;;;3.80;;
74872;SDS011;68776;44.762;37.698;2023-04-03T02:04:43;10.52;;;3.80;;
74872;SDS011;68776;44.762;37.698;2023-04-03T02:05:44;11.25;;;3.80;;
74872;SDS011;68776;44.762;37.698;2023-04-03T02:06:45;12.40;;;4.20;;
74872;SDS011;68776;44.762;37.698;2023-04-03T02:07:46;11.50;;;4.15;;
74872;SDS011;68776;44.762;37.698;2023-04-03T02:08:47;10.95;;;3.97;;
74872;SDS011;68776;44.762;37.698;2023-04-03T02:09:48;10.25;;;3.70;;
74872;SDS011;68776;44.762;37.698;2023-04-03T02:10:50;10.02;;;3.70;;
74872;SDS011;68776;44.762;37.698;2023-04-03T02:11:51;11.77;;;4.47;;
74872;SDS011;68776;44.762;37.698;2023-04-03T02:12:53;12.60;;;3.80;;
74872;SDS011;68776;44.762;37.698;2023-04-03T02:13:54;12.77;;;4.20;;
74872;SDS011;68776;44.762;37.698;2023-04-03T02:14:55;11.32;;;4.30;;
74872;SDS011;68776;44.762;37.698;2023-04-03T02:15:56;13.07;;;4.30;;
74872;SDS011;68776;44.762;37.698;2023-04-03T02:16:57;11.88;;;4.35;;
74872;SDS011;68776;44.762;37.698;2023-04-03T02:17:58;10.63;;;4.30;;
74872;SDS011;68776;44.762;37.698;2023-04-03T02:19:00;11.85;;;4.65;;
74872;SDS011;68776;44.762;37.698;2023-04-03T02:20:01;12.07;;;4.57;;
74872;SDS011;68776;44.762;37.698;2023-04-03T02:21:03;13.65;;;4.60;;
74872;SDS011;68776;44.762;37.698;2023-04-03T02:22:04;10.32;;;4.88;;
74872;SDS011;68776;44.762;37.698;2023-04-03T02:23:05;14.75;;;5.00;;
74872;SDS011;68776;44.762;37.698;2023-04-03T02:24:07;13.25;;;5.10;;
74872;SDS011;68776;44.762;37.698;2023-04-03T02:25:08;14.32;;;4.82;;
74872;SDS011;68776;44.762;37.698;2023-04-03T02:26:11;12.43;;;4.50;;
74872;SDS011;68776;44.762;37.698;2023-04-03T02:27:13;16.10;;;5.20;;
74872;SDS011;68776;44.762;37.698;2023-04-03T02:28:15;12.25;;;5.03;;
74872;SDS011;68776;44.762;37.698;2023-04-03T02:29:15;14.52;;;5.43;;
74872;SDS011;68776;44.762;37.698;2023-04-03T02:30:17;14.52;;;5.07;;
74872;SDS011;68776;44.762;37.698;2023-04-03T02:31:18;14.10;;;5.68;;
74872;SDS011;68776;44.762;37.698;2023-04-03T02:32:20;13.88;;;5.40;;
74872;SDS011;68776;44.762;37.698;2023-04-03T02:33:21;13.52;;;5.57;;
74872;SDS011;68776;44.762;37.698;2023-04-03T02:34:23;14.38;;;5.50;;
74872;SDS011;68776;44.762;37.698;2023-04-03T02:35:25;13.57;;;5.68;;
74872;SDS011;68776;44.762;37.698;2023-04-03T02:36:28;14.23;;;6.20;;
74872;SDS011;68776;44.762;37.698;2023-04-03T02:37:32;13.93;;;5.90;;
74872;SDS011;68776;44.762;37.698;2023-04-03T02:38:33;13.55;;;6.32;;
74872;SDS011;68776;44.762;37.698;2023-04-03T02:39:35;14.18;;;6.50;;
74872;SDS011;68776;44.762;37.698;2023-04-03T02:40:37;13.87;;;6.10;;
74872;SDS011;68776;44.762;37.698;2023-04-03T02:41:38;14.75;;;5.93;;
74872;SDS011;68776;44.762;37.698;2023-04-03T02:42:45;14.52;;;6.57;;
74872;SDS011;68776;44.762;37.698;2023-04-03T02:43:46;13.38;;;6.30;;
74872;SDS011;68776;44.762;37.698;2023-04-03T02:44:47;14.25;;;6.20;;
74872;SDS011;68776;44.762;37.698;2023-04-03T02:45:48;15.57;;;7.25;;
74872;SDS011;68776;44.762;37.698;2023-04-03T02:46:49;14.10;;;6.70;;
74872;SDS011;68776;44.762;37.698;2023-04-03T02:47:51;14.20;;;6.70;;
74872;SDS011;68776;44.762;37.698;2023-04-03T02:48:52;14.57;;;6.57;;
74872;SDS011;68776;44.762;37.698;2023-04-03T02:49:53;16.30;;;7.07;;
74872;SDS011;68776;44.762;37.698;2023-04-03T02:50:55;13.20;;;6.88;;
74872;SDS011;68776;44.762;37.698;2023-04-03T02:51:55;18.73;;;7.32;;
74872;SDS011;68776;44.762;37.698;2023-04-03T02:52:57;14.75;;;6.70;;
74872;SDS011;68776;44.762;37.698;2023-04-03T02:53:58;15.27;;;7.43;;
74872;SDS011;68776;44.762;37.698;2023-04-03T02:55:02;15.98;;;7.28;;
74872;SDS011;68776;44.762;37.698;2023-04-03T02:56:04;16.25;;;7.47;;
74872;SDS011;68776;44.762;37.698;2023-04-03T02:57:05;17.27;;;7.30;;
74872;SDS011;68776;44.762;37.698;2023-04-03T02:58:09;16.90;;;7.53;;
74872;SDS011;68776;44.762;37.698;2023-04-03T02:59:10;17.27;;;7.80;;
74872;SDS011;68776;44.762;37.698;2023-04-03T03:00:13;15.63;;;7.00;;
74872;SDS011;68776;44.762;37.698;2023-04-03T03:01:14;17.20;;;6.95;;
74872;SDS011;68776;44.762;37.698;2023-04-03T03:02:15;19.50;;;7.15;;
74872;SDS011;68776;44.762;37.698;2023-04-03T03:03:19;14.00;;;6.75;;
74872;SDS011;68776;44.762;37.698;2023-04-03T03:04:20;15.53;;;6.97;;
74872;SDS011;68776;44.762;37.698;2023-04-03T03:05:21;16.17;;;7.28;;
74872;SDS011;68776;44.762;37.698;2023-04-03T03:06:22;18.08;;;7.22;;
74872;SDS011;68776;44.762;37.698;2023-04-03T03:07:24;16.00;;;7.07;;
74872;SDS011;68776;44.762;37.698;2023-04-03T03:08:25;18.95;;;7.45;;
74872;SDS011;68776;44.762;37.698;2023-04-03T03:09:26;17.53;;;7.47;;
74872;SDS011;68776;44.762;37.698;2023-04-03T03:10:27;16.25;;;6.93;;
74872;SDS011;68776;44.762;37.698;2023-04-03T03:11:28;15.35;;;6.55;;
74872;SDS011;68776;44.762;37.698;2023-04-03T03:12:29;15.30;;;7.55;;
74872;SDS011;68776;44.762;37.698;2023-04-03T03:13:30;17.48;;;7.30;;
74872;SDS011;68776;44.762;37.698;2023-04-03T03:14:32;17.02;;;6.90;;
74872;SDS011;68776;44.762;37.698;2023-04-03T03:15:32;14.80;;;7.18;;
74872;SDS011;68776;44.762;37.698;2023-04-03T03:16:33;17.67;;;8.00;;
74872;SDS011;68776;44.762;37.698;2023-04-03T03:17:34;16.35;;;7.63;;
74872;SDS011;68776;44.762;37.698;2023-04-03T03:18:36;15.32;;;7.43;;
74872;SDS011;68776;44.762;37.698;2023-04-03T03:19:37;17.42;;;7.18;;
74872;SDS011;68776;44.762;37.698;2023-04-03T03:20:38;15.20;;;7.00;;
74872;SDS011;68776;44.762;37.698;2023-04-03T03:21:39;16.55;;;7.00;;
74872;SDS011;68776;44.762;37.698;2023-04-03T03:22:40;13.73;;;6.63;;
74872;SDS011;68776;44.762;37.698;2023-04-03T03:23:41;15.60;;;6.40;;
74872;SDS011;68776;44.762;37.698;2023-04-03T03:24:42;14.70;;;6.85;;
74872;SDS011;68776;44.762;37.698;2023-04-03T03:25:43;13.80;;;6.15;;
74872;SDS011;68776;44.762;37.698;2023-04-03T03:26:44;14.20;;;6.65;;
74872;SDS011;68776;44.762;37.698;2023-04-03T03:27:46;13.63;;;6.35;;
74872;SDS011;68776;44.762;37.698;2023-04-03T03:28:47;14.65;;;6.68;;
74872;SDS011;68776;44.762;37.698;2023-04-03T03:29:48;13.90;;;6.55;;
74872;SDS011;68776;44.762;37.698;2023-04-03T03:30:49;14.32;;;6.55;;
74872;SDS011;68776;44.762;37.698;2023-04-03T03:31:51;15.85;;;6.90;;
74872;SDS011;68776;44.762;37.698;2023-04-03T03:32:52;12.90;;;7.00;;
74872;SDS011;68776;44.762;37.698;2023-04-03T03:33:53;14.93;;;6.95;;
74872;SDS011;68776;44.762;37.698;2023-04-03T03:34:56;15.77;;;7.15;;
74872;SDS011;68776;44.762;37.698;2023-04-03T03:35:57;13.32;;;6.47;;
74872;SDS011;68776;44.762;37.698;2023-04-03T03:36:58;17.35;;;6.63;;
74872;SDS011;68776;44.762;37.698;2023-04-03T03:37:59;13.13;;;6.70;;
74872;SDS011;68776;44.762;37.698;2023-04-03T03:39:00;12.65;;;6.30;;
74872;SDS011;68776;44.762;37.698;2023-04-03T03:40:01;14.73;;;7.07;;
74872;SDS011;68776;44.762;37.698;2023-04-03T03:41:04;15.50;;;6.87;;
74872;SDS011;68776;44.762;37.698;2023-04-03T03:42:07;12.75;;;6.75;;
74872;SDS011;68776;44.762;37.698;2023-04-03T03:43:07;13.60;;;6.85;;
74872;SDS011;68776;44.762;37.698;2023-04-03T03:44:09;14.95;;;6.88;;
74872;SDS011;68776;44.762;37.698;2023-04-03T03:45:11;16.98;;;7.55;;
74872;SDS011;68776;44.762;37.698;2023-04-03T03:46:12;14.57;;;6.90;;
74872;SDS011;68776;44.762;37.698;2023-04-03T03:47:13;14.35;;;6.63;;
74872;SDS011;68776;44.762;37.698;2023-04-03T03:48:14;13.50;;;6.68;;
74872;SDS011;68776;44.762;37.698;2023-04-03T03:49:15;15.32;;;7.20;;
74872;SDS011;68776;44.762;37.698;2023-04-03T03:50:16;14.95;;;6.80;;
74872;SDS011;68776;44.762;37.698;2023-04-03T03:51:17;13.82;;;7.00;;
74872;SDS011;68776;44.762;37.698;2023-04-03T03:52:18;13.40;;;6.80;;
74872;SDS011;68776;44.762;37.698;2023-04-03T03:53:19;14.43;;;6.40;;
74872;SDS011;68776;44.762;37.698;2023-04-03T03:54:22;13.88;;;6.65;;
74872;SDS011;68776;44.762;37.698;2023-04-03T03:55:24;12.70;;;6.93;;
74872;SDS011;68776;44.762;37.698;2023-04-03T03:56:28;12.95;;;6.30;;
74872;SDS011;68776;44.762;37.698;2023-04-03T03:57:29;15.07;;;6.65;;
74872;SDS011;68776;44.762;37.698;2023-04-03T03:58:31;12.60;;;6.40;;
74872;SDS011;68776;44.762;37.698;2023-04-03T03:59:32;14.82;;;6.88;;
74872;SDS011;68776;44.762;37.698;2023-04-03T04:00:34;14.40;;;6.45;;
74872;SDS011;68776;44.762;37.698;2023-04-03T04:01:35;15.63;;;6.70;;
74872;SDS011;68776;44.762;37.698;2023-04-03T04:02:37;14.90;;;6.13;;
74872;SDS011;68776;44.762;37.698;2023-04-03T04:03:38;14.52;;;6.60;;
74872;SDS011;68776;44.762;37.698;2023-04-03T04:04:41;13.30;;;6.75;;
74872;SDS011;68776;44.762;37.698;2023-04-03T04:05:42;15.65;;;6.63;;
74872;SDS011;68776;44.762;37.698;2023-04-03T04:06:43;14.15;;;6.95;;
74872;SDS011;68776;44.762;37.698;2023-04-03T04:07:48;13.05;;;6.55;;
74872;SDS011;68776;44.762;37.698;2023-04-03T04:08:49;13.18;;;6.57;;
74872;SDS011;68776;44.762;37.698;2023-04-03T04:09:50;15.53;;;6.60;;
74872;SDS011;68776;44.762;37.698;2023-04-03T04:10:51;15.85;;;7.07;;
74872;SDS011;68776;44.762;37.698;2023-04-03T04:11:53;13.82;;;6.97;;
74872;SDS011;68776;44.762;37.698;2023-04-03T04:12:54;12.88;;;6.55;;
74872;SDS011;68776;44.762;37.698;2023-04-03T04:13:58;14.63;;;6.60;;
74872;SDS011;68776;44.762;37.698;2023-04-03T04:15:01;14.50;;;6.60;;
74872;SDS011;68776;44.762;37.698;2023-04-03T04:16:04;13.15;;;6.60;;
74872;SDS011;68776;44.762;37.698;2023-04-03T04:17:06;14.73;;;6.60;;
74872;SDS011;68776;44.762;37.698;2023-04-03T04:18:07;13.80;;;6.70;;
74872;SDS011;68776;44.762;37.698;2023-04-03T04:19:09;15.30;;;6.60;;
74872;SDS011;68776;44.762;37.698;2023-04-03T04:20:11;14.73;;;6.88;;
74872;SDS011;68776;44.762;37.698;2023-04-03T04:21:13;14.43;;;7.03;;
74872;SDS011;68776;44.762;37.698;2023-04-03T04:22:15;15.68;;;6.82;;
74872;SDS011;68776;44.762;37.698;2023-04-03T04:23:17;12.85;;;6.70;;
74872;SDS011;68776;44.762;37.698;2023-04-03T04:24:18;16.35;;;7.00;;
74872;SDS011;68776;44.762;37.698;2023-04-03T04:25:21;15.45;;;6.90;;
74872;SDS011;68776;44.762;37.698;2023-04-03T04:26:23;15.57;;;7.28;;
74872;SDS011;68776;44.762;37.698;2023-04-03T04:27:24;14.02;;;6.70;;
74872;SDS011;68776;44.762;37.698;2023-04-03T04:28:25;14.35;;;6.90;;
74872;SDS011;68776;44.762;37.698;2023-04-03T04:29:28;16.25;;;7.20;;
74872;SDS011;68776;44.762;37.698;2023-04-03T04:30:29;14.93;;;6.70;;
74872;SDS011;68776;44.762;37.698;2023-04-03T04:31:32;18.55;;;7.00;;
74872;SDS011;68776;44.762;37.698;2023-04-03T04:32:33;15.73;;;7.00;;
74872;SDS011;68776;44.762;37.698;2023-04-03T04:33:34;14.05;;;6.22;;
74872;SDS011;68776;44.762;37.698;2023-04-03T04:34:38;12.80;;;6.65;;
74872;SDS011;68776;44.762;37.698;2023-04-03T04:35:41;14.57;;;6.80;;
74872;SDS011;68776;44.762;37.698;2023-04-03T04:36:42;12.77;;;6.40;;
74872;SDS011;68776;44.762;37.698;2023-04-03T04:37:44;12.60;;;5.93;;
74872;SDS011;68776;44.762;37.698;2023-04-03T04:38:45;13.63;;;5.93;;
74872;SDS011;68776;44.762;37.698;2023-04-03T04:39:46;14.03;;;6.57;;
74872;SDS011;68776;44.762;37.698;2023-04-03T04:40:48;14.20;;;6.53;;
74872;SDS011;68776;44.762;37.698;2023-04-03T04:41:49;15.35;;;6.53;;
74872;SDS011;68776;44.762;37.698;2023-04-03T04:42:50;12.13;;;6.10;;
74872;SDS011;68776;44.762;37.698;2023-04-03T04:43:51;13.75;;;5.97;;
74872;SDS011;68776;44.762;37.698;2023-04-03T04:44:53;13.48;;;6.07;;
74872;SDS011;68776;44.762;37.698;2023-04-03T04:46:27;14.57;;;6.18;;
74872;SDS011;68776;44.762;37.698;2023-04-03T04:47:27;12.95;;;6.00;;
74872;SDS011;68776;44.762;37.698;2023-04-03T04:48:29;13.32;;;5.88;;
74872;SDS011;68776;44.762;37.698;2023-04-03T04:49:30;13.15;;;6.07;;
74872;SDS011;68776;44.762;37.698;2023-04-03T04:50:31;13.13;;;6.13;;
74872;SDS011;68776;44.762;37.698;2023-04-03T04:51:32;13.40;;;5.68;;
74872;SDS011;68776;44.762;37.698;2023-04-03T04:52:34;12.90;;;5.88;;
74872;SDS011;68776;44.762;37.698;2023-04-03T04:53:35;12.43;;;6.05;;
74872;SDS011;68776;44.762;37.698;2023-04-03T04:54:36;12.70;;;5.53;;
74872;SDS011;68776;44.762;37.698;2023-04-03T04:55:37;11.60;;;5.50;;
74872;SDS011;68776;44.762;37.698;2023-04-03T04:56:38;12.52;;;5.78;;
74872;SDS011;68776;44.762;37.698;2023-04-03T04:57:39;13.73;;;5.90;;
74872;SDS011;68776;44.762;37.698;2023-04-03T04:58:40;12.00;;;5.82;;
74872;SDS011;68776;44.762;37.698;2023-04-03T04:59:41;12.10;;;5.85;;
74872;SDS011;68776;44.762;37.698;2023-04-03T05:00:42;14.95;;;6.35;;
74872;SDS011;68776;44.762;37.698;2023-04-03T05:01:44;12.80;;;6.20;;
74872;SDS011;68776;44.762;37.698;2023-04-03T05:02:49;12.55;;;6.45;;
74872;SDS011;68776;44.762;37.698;2023-04-03T05:03:52;13.52;;;5.60;;
74872;SDS011;68776;44.762;37.698;2023-04-03T05:04:54;14.18;;;6.00;;
74872;SDS011;68776;44.762;37.698;2023-04-03T05:06:00;12.70;;;6.40;;
74872;SDS011;68776;44.762;37.698;2023-04-03T05:07:02;12.02;;;5.82;;
74872;SDS011;68776;44.762;37.698;2023-04-03T05:08:06;15.50;;;6.07;;
74872;SDS011;68776;44.762;37.698;2023-04-03T05:09:08;12.63;;;6.27;;
74872;SDS011;68776;44.762;37.698;2023-04-03T05:10:10;12.63;;;5.72;;
74872;SDS011;68776;44.762;37.698;2023-04-03T05:11:12;13.38;;;5.85;;
74872;SDS011;68776;44.762;37.698;2023-04-03T05:12:17;12.68;;;6.40;;
74872;SDS011;68776;44.762;37.698;2023-04-03T05:13:25;12.63;;;5.83;;
74872;SDS011;68776;44.762;37.698;2023-04-03T05:14:27;13.20;;;6.22;;
74872;SDS011;68776;44.762;37.698;2023-04-03T05:15:30;10.77;;;5.60;;
74872;SDS011;68776;44.762;37.698;2023-04-03T05:16:32;11.55;;;6.25;;
74872;SDS011;68776;44.762;37.698;2023-04-03T05:17:33;13.05;;;5.88;;
74872;SDS011;68776;44.762;37.698;2023-04-03T05:18:35;13.97;;;6.03;;
74872;SDS011;68776;44.762;37.698;2023-04-03T05:19:41;12.10;;;5.90;;
74872;SDS011;68776;44.762;37.698;2023-04-03T05:20:43;14.70;;;6.00;;
74872;SDS011;68776;44.762;37.698;2023-04-03T05:21:44;13.07;;;5.95;;
74872;SDS011;68776;44.762;37.698;2023-04-03T05:22:48;13.33;;;6.70;;
74872;SDS011;68776;44.762;37.698;2023-04-03T05:23:49;13.45;;;6.60;;
74872;SDS011;68776;44.762;37.698;2023-04-03T05:24:50;14.35;;;6.72;;
74872;SDS011;68776;44.762;37.698;2023-04-03T05:25:53;15.18;;;6.10;;
74872;SDS011;68776;44.762;37.698;2023-04-03T05:26:55;14.85;;;7.60;;
74872;SDS011;68776;44.762;37.698;2023-04-03T05:27:56;11.93;;;5.88;;
74872;SDS011;68776;44.762;37.698;2023-04-03T05:28:57;14.38;;;5.60;;
74872;SDS011;68776;44.762;37.698;2023-04-03T05:29:58;11.68;;;5.53;;
74872;SDS011;68776;44.762;37.698;2023-04-03T05:31:00;11.73;;;5.45;;
74872;SDS011;68776;44.762;37.698;2023-04-03T05:32:07;12.07;;;5.20;;
74872;SDS011;68776;44.762;37.698;2023-04-03T05:33:08;12.63;;;5.70;;
74872;SDS011;68776;44.762;37.698;2023-04-03T05:34:15;13.80;;;6.05;;
74872;SDS011;68776;44.762;37.698;2023-04-03T05:35:17;13.98;;;5.85;;
74872;SDS011;68776;44.762;37.698;2023-04-03T05:36:19;12.43;;;5.85;;
74872;SDS011;68776;44.762;37.698;2023-04-03T05:37:24;13.43;;;6.43;;
74872;SDS011;68776;44.762;37.698;2023-04-03T05:38:26;14.18;;;6.13;;
74872;SDS011;68776;44.762;37.698;2023-04-03T05:39:29;13.32;;;5.97;;
74872;SDS011;68776;44.762;37.698;2023-04-03T05:40:32;13.25;;;5.95;;
74872;SDS011;68776;44.762;37.698;2023-04-03T05:41:33;12.90;;;6.20;;
74872;SDS011;68776;44.762;37.698;2023-04-03T05:42:34;10.75;;;5.70;;
74872;SDS011;68776;44.762;37.698;2023-04-03T05:43:35;11.70;;;5.30;;
74872;SDS011;68776;44.762;37.698;2023-04-03T05:44:39;11.90;;;4.93;;
74872;SDS011;68776;44.762;37.698;2023-04-03T05:45:42;10.68;;;4.95;;
74872;SDS011;68776;44.762;37.698;2023-04-03T05:46:43;11.27;;;4.95;;
74872;SDS011;68776;44.762;37.698;2023-04-03T05:47:45;11.20;;;5.15;;
74872;SDS011;68776;44.762;37.698;2023-04-03T05:48:47;10.50;;;4.90;;
74872;SDS011;68776;44.762;37.698;2023-04-03T05:49:52;11.77;;;5.25;;
74872;SDS011;68776;44.762;37.698;2023-04-03T05:50:53;11.48;;;4.97;;
74872;SDS011;68776;44.762;37.698;2023-04-03T05:51:57;11.63;;;4.88;;
74872;SDS011;68776;44.762;37.698;2023-04-03T05:53:02;11.10;;;5.37;;
74872;SDS011;68776;44.762;37.698;2023-04-03T05:54:13;10.75;;;4.95;;
74872;SDS011;68776;44.762;37.698;2023-04-03T05:55:18;10.18;;;4.93;;
74872;SDS011;68776;44.762;37.698;2023-04-03T05:56:21;10.00;;;4.72;;
74872;SDS011;68776;44.762;37.698;2023-04-03T05:57:22;11.15;;;5.28;;
74872;SDS011;68776;44.762;37.698;2023-04-03T05:58:24;13.32;;;5.35;;
74872;SDS011;68776;44.762;37.698;2023-04-03T05:59:26;11.98;;;5.40;;
74872;SDS011;68776;44.762;37.698;2023-04-03T06:00:30;10.18;;;5.10;;
74872;SDS011;68776;44.762;37.698;2023-04-03T06:01:35;13.65;;;5.15;;
74872;SDS011;68776;44.762;37.698;2023-04-03T06:02:36;11.05;;;5.22;;
74872;SDS011;68776;44.762;37.698;2023-04-03T06:03:37;12.20;;;5.13;;
74872;SDS011;68776;44.762;37.698;2023-04-03T06:04:40;9.90;;;4.82;;
74872;SDS011;68776;44.762;37.698;2023-04-03T06:05:41;10.93;;;4.60;;
74872;SDS011;68776;44.762;37.698;2023-04-03T06:06:45;9.37;;;4.90;;
74872;SDS011;68776;44.762;37.698;2023-04-03T06:07:48;12.15;;;4.95;;
74872;SDS011;68776;44.762;37.698;2023-04-03T06:08:50;10.65;;;5.25;;
74872;SDS011;68776;44.762;37.698;2023-04-03T06:09:51;11.93;;;4.82;;
74872;SDS011;68776;44.762;37.698;2023-04-03T06:10:52;12.47;;;4.97;;